Flag for Belgium

Past Weather in 51°13'20.4"N, 4°23'46.2"E, Belgium — Yesterday and Last 2 Weeks

Currently: 59 °F. Scattered clouds. (Weather station: Antwerp / Deurne, Belgium). See more current weather

Past Weather in 51°13'20.4"N, 4°23'46.2"E — Graph

°F

51°13'20.4"N, 4°23'46.2"E Temperature Yesterday

Maximum temperature yesterday: 66 °F (at 7:20 pm)
Minimum temperature yesterday: 54 °F (at 11:20 pm)
Average temperature yesterday: 61 °F

High & Low Weather Summary for the Past Weeks

 TemperatureHumidityPressure
High70 °F (May 19, 4:20 pm)100% (May 15, 9:20 pm)30.09 "Hg (May 15, 9:20 pm)
Low48 °F (May 26, 4:50 am)49% (May 28, 1:20 pm)29.62 "Hg (May 16, 6:20 am)
Average59 °F83%29.88 "Hg
* Reported May 15 6:20 pm — May 30 6:20 pm, 51°13'20.4"N, 4°23'46.2"E. Weather by CustomWeather, © 2024

Note: Actual official high and low records may vary slightly from our data, if they occured in-between our weather recording intervals... More about our weather records

51°13'20.4"N, 4°23'46.2"E Weather History for the Previous 24 Hours

Scroll right to see more
 ConditionsComfort  
Time TempWeatherWind HumidityBarometerVisibility
6:20 pm
Thu, May 30
59 °FScattered clouds.14 mph77%29.77 "HgN/A
5:50 pm61 °FScattered clouds.13 mph72%29.77 "HgN/A
5:20 pm61 °FScattered clouds.13 mph72%29.77 "HgN/A
4:50 pm61 °FScattered clouds.13 mph72%29.74 "HgN/A
4:20 pm59 °FScattered clouds.13 mph72%29.74 "HgN/A
3:50 pm61 °FPassing clouds.10 mph72%29.74 "HgN/A
2:50 pm61 °FPassing clouds.16 mph68%29.74 "HgN/A
1:50 pm61 °FScattered clouds.15 mph68%29.74 "HgN/A
1:20 pm61 °FPassing clouds.15 mph68%29.74 "HgN/A
12:50 pm61 °FPassing clouds.13 mph68%29.74 "HgN/A
12:20 pm63 °FPassing clouds.12 mph64%29.74 "HgN/A
11:50 am61 °FPassing clouds.12 mph68%29.74 "HgN/A
11:20 am61 °FScattered clouds.9 mph68%29.74 "HgN/A
10:20 am59 °FScattered clouds.10 mph77%29.74 "HgN/A
9:50 am61 °FPassing clouds.10 mph72%29.74 "HgN/A
9:20 am59 °FPassing clouds.9 mph88%29.74 "HgN/A
8:50 am59 °FPassing clouds.7 mph88%29.74 "HgN/A
7:50 am55 °FSunny.7 mph94%29.71 "Hg10 mi
6:50 am55 °FPassing clouds.5 mph94%29.71 "HgN/A
6:20 am55 °FSunny.2 mph94%29.71 "Hg10 mi
5:50 am55 °FLight rain. Clear.3 mph88%29.71 "HgN/A
5:20 am55 °FLight rain. Passing clouds.5 mph88%29.71 "HgN/A
4:50 am54 °FPassing clouds.3 mph94%29.71 "HgN/A
4:20 am54 °FClear.2 mph94%29.71 "Hg10 mi
3:20 am48 °FFog.3 mph94%29.74 "HgN/A
2:20 am50 °FFog.1 mph94%29.74 "HgN/A
1:50 am52 °FFog.2 mph88%29.74 "HgN/A
1:20 am52 °FFog.1 mph88%29.74 "HgN/A
12:50 am54 °FFog.1 mph82%29.74 "HgN/A
11:50 pm
Wed, May 29
54 °FFog.2 mph88%29.74 "HgN/A
11:20 pm54 °FFog.1 mph82%29.74 "HgN/A
10:50 pm57 °FPassing clouds.1 mph77%29.74 "HgN/A
10:20 pm59 °FPassing clouds.2 mph68%29.77 "HgN/A
9:20 pm63 °FPassing clouds.6 mph59%29.77 "HgN/A
8:50 pm64 °FPassing clouds.5 mph64%29.77 "HgN/A
8:20 pm64 °FPassing clouds.6 mph64%29.77 "HgN/A
7:50 pm66 °FPassing clouds.7 mph56%29.77 "HgN/A
7:20 pm66 °FPassing clouds.7 mph60%29.77 "HgN/A
Weather by CustomWeather, © 2024

See weather overview